Hart, Michigan
Current Conditions -  °F | °C
As of 8:35 PM on Friday 19 Dec 2014 (Local Time) from KLDM Reporting Station
Haze Haze  
Wind Chill: 21°   Ceiling: 700
Heat Index: 21°   Visibility: 1.5mi
Dew Point: 18°   Wind: 0mph
Humidity: 89%   Direction: NA
Pressure: 30.31"   Gusts: NA
Location:  43.7°N, 86.36°W
Report Text: KLDM 200135Z AUTO 00000KT 1 1/2SM BR VV007 M06/M08 A3031 RMK AO2 T10631078
Loading
Personal Weather Stations






























Interactive Weather Map New forecast layout! Learn more

10-Day Weather Forecast

Advertisements
Track Severe Weather on mobile